Time;durP1;ratioP1;P1;durP2;ratioP2;P2;SDS_P1;SDS_P2;PMS_P1;PMS_P2;Temp;Humidity;BMP_temperature;BMP_pressure;BME280_temperature;BME280_humidity;BME280_pressure;Samples;Min_cycle;Max_cycle;Signal;HPM_P1;HPM_P2
2023/04/12 04:12:36;;;;;;;14.80;7.85;;;;;;;3.68;100.00;99664.19;5573716;32;186564;-87
2023/04/12 04:15:40;;;;;;;10.65;7.87;;;;;;;3.68;100.00;99664.19;5557574;32;33992;-85
2023/04/12 04:18:43;;;;;;;10.75;6.95;;;;;;;3.22;100.00;99685.72;5548326;32;33739;-87
2023/04/12 04:21:46;;;;;;;11.48;7.10;;;;;;;3.27;100.00;99682.94;5549225;32;34256;-86
2023/04/12 04:24:50;;;;;;;11.88;7.43;;;;;;;3.31;100.00;99671.44;5547815;32;34025;-85
2023/04/12 04:27:53;;;;;;;9.88;6.87;;;;;;;3.37;100.00;99676.50;5548525;32;34681;-85
2023/04/12 04:31:02;;;;;;;8.90;6.22;;;;;;;3.54;100.00;99682.97;5549042;32;33900;-86
2023/04/12 04:34:07;;;;;;;9.18;6.28;;;;;;;3.62;100.00;99694.94;5549813;32;34069;-85
2023/04/12 04:37:12;;;;;;;8.25;6.30;;;;;;;3.61;100.00;99684.47;5552839;32;34495;-86
2023/04/12 04:40:20;;;;;;;7.45;5.95;;;;;;;3.62;100.00;99684.44;5551564;32;34072;-86
2023/04/12 04:43:24;;;;;;;7.55;6.30;;;;;;;3.69;100.00;99682.50;5550419;32;34779;-86
2023/04/12 04:46:29;;;;;;;9.98;6.03;;;;;;;3.78;100.00;99674.31;5551981;32;32600;-86
2023/04/12 04:49:32;;;;;;;10.18;6.37;;;;;;;3.83;100.00;99675.94;5551268;32;34075;-86
2023/04/12 04:52:38;;;;;;;8.18;5.93;;;;;;;3.94;100.00;99683.44;5549933;32;34653;-86
2023/04/12 04:55:41;;;;;;;6.45;5.62;;;;;;;4.00;100.00;99680.59;5551341;32;34163;-86
2023/04/12 04:58:44;;;;;;;6.97;5.22;;;;;;;4.11;100.00;99680.25;5549089;32;34604;-86
2023/04/12 05:01:47;;;;;;;5.78;5.05;;;;;;;4.28;100.00;99683.16;5551737;32;33919;-86
2023/04/12 05:04:51;;;;;;;6.95;5.32;;;;;;;4.36;100.00;99680.25;5548352;32;33052;-86
2023/04/12 05:07:57;;;;;;;9.57;5.80;;;;;;;4.49;100.00;99691.19;5554776;32;33521;-86
2023/04/12 05:11:01;;;;;;;8.32;4.68;;;;;;;4.56;100.00;99689.19;5543348;32;35208;-86
2023/04/12 05:14:04;;;;;;;7.15;4.70;;;;;;;4.71;100.00;99695.66;5533410;32;34646;-87
2023/04/12 05:17:07;;;;;;;6.78;4.97;;;;;;;4.81;100.00;99691.78;5535818;32;34036;-86
2023/04/12 05:20:10;;;;;;;7.97;4.85;;;;;;;4.98;100.00;99688.53;5530393;32;34007;-88
2023/04/12 05:23:16;;;;;;;7.57;4.35;;;;;;;5.43;100.00;99682.47;5540572;32;34174;-90
2023/04/12 05:26:20;;;;;;;6.65;4.40;;;;;;;6.36;100.00;99683.09;5536351;32;34709;-91
2023/04/12 05:29:23;;;;;;;6.65;4.60;;;;;;;7.51;100.00;99680.56;5533052;32;34623;-88
2023/04/12 05:32:26;;;;;;;5.25;4.25;;;;;;;7.81;100.00;99680.81;5535175;32;34678;-88
2023/04/12 05:35:30;;;;;;;5.22;4.60;;;;;;;7.64;100.00;99672.91;5534156;32;34586;-88
2023/04/12 05:38:33;;;;;;;5.43;4.80;;;;;;;7.13;100.00;99673.50;5538819;32;34144;-87
2023/04/12 05:41:36;;;;;;;5.10;4.60;;;;;;;7.12;100.00;99672.69;5537411;32;34811;-87
2023/04/12 05:44:38;;;;;;;5.32;4.70;;;;;;;7.44;100.00;99669.41;5526740;32;33945;-86
2023/04/12 05:47:42;;;;;;;4.65;4.20;;;;;;;7.86;100.00;99655.97;5516934;32;34557;-86
2023/04/12 05:50:52;;;;;;;5.85;4.68;;;;;;;8.27;99.43;99657.44;5515043;32;35025;-87
2023/04/12 05:53:55;;;;;;;5.72;4.43;;;;;;;8.06;100.00;99662.91;5516748;32;34895;-86
2023/04/12 05:56:59;;;;;;;6.32;5.28;;;;;;;8.58;98.03;99658.53;5517271;32;32870;-87
2023/04/12 06:00:06;;;;;;;6.87;4.97;;;;;;;8.81;96.00;99669.66;5516527;32;34107;-87
2023/04/12 06:03:15;;;;;;;5.85;4.65;;;;;;;8.75;96.08;99678.78;5525841;32;33536;-87
2023/04/12 06:06:18;;;;;;;5.85;5.22;;;;;;;9.43;92.05;99679.53;5542584;32;33883;-88
2023/04/12 06:09:22;;;;;;;7.93;4.95;;;;;;;9.96;89.85;99685.34;5541349;32;33786;-88
2023/04/12 06:12:27;;;;;;;6.25;4.35;;;;;;;10.96;82.72;99689.19;5531004;32;35759;-88
2023/04/12 06:15:30;;;;;;;5.82;4.55;;;;;;;10.88;83.15;99694.97;5526760;32;34697;-89
2023/04/12 06:18:34;;;;;;;6.62;4.60;;;;;;;12.83;74.13;99688.50;5523893;32;33839;-88
2023/04/12 06:21:37;;;;;;;5.68;4.40;;;;;;;12.05;76.00;99691.09;5524199;32;34210;-88
2023/04/12 06:24:40;;;;;;;6.65;4.82;;;;;;;13.10;73.73;99694.63;5520405;32;33559;-87
2023/04/12 06:27:43;;;;;;;5.37;4.28;;;;;;;12.98;70.49;99697.19;5518165;32;34188;-87
2023/04/12 06:30:47;;;;;;;7.70;4.40;;;;;;;13.58;68.09;99692.06;5518113;32;34780;-86
2023/04/12 06:33:50;;;;;;;6.05;4.20;;;;;;;13.99;67.99;99691.78;5524376;32;33653;-87
2023/04/12 06:36:56;;;;;;;5.32;4.28;;;;;;;14.12;63.86;99694.34;5584736;26;35146;-87
2023/04/12 06:39:59;;;;;;;6.85;4.40;;;;;;;15.34;60.21;99685.91;5539219;32;34271;-87
2023/04/12 06:43:02;;;;;;;6.75;4.03;;;;;;;15.39;58.44;99697.03;5535077;32;34569;-87
2023/04/12 06:46:05;;;;;;;4.80;3.90;;;;;;;16.43;53.35;99704.59;5536720;32;33862;-88
2023/04/12 06:49:08;;;;;;;5.62;4.62;;;;;;;16.23;52.21;99698.25;5576373;26;34043;-87
2023/04/12 06:52:11;;;;;;;5.97;4.47;;;;;;;13.51;59.50;99695.28;5559242;32;33671;-86
2023/04/12 06:55:14;;;;;;;5.28;4.78;;;;;;;13.23;60.86;99703.44;5559676;32;34421;-85
2023/04/12 06:58:17;;;;;;;6.35;4.22;;;;;;;12.58;62.66;99698.16;5556905;32;33907;-86
2023/04/12 07:01:21;;;;;;;6.05;4.78;;;;;;;14.45;58.14;99699.91;5555902;32;34576;-86
2023/04/12 07:04:24;;;;;;;6.50;5.45;;;;;;;14.10;59.20;99702.50;5554075;32;34339;-87
2023/04/12 07:07:28;;;;;;;8.65;5.70;;;;;;;15.74;53.50;99695.97;5556894;32;33863;-86
2023/04/12 07:10:32;;;;;;;9.65;6.05;;;;;;;16.02;50.58;99714.28;5544395;32;34144;-86
2023/04/12 07:13:35;;;;;;;9.63;6.43;;;;;;;13.45;58.96;99701.91;5556584;32;33970;-86
2023/04/12 07:16:38;;;;;;;8.10;5.37;;;;;;;13.47;58.14;99700.84;5555200;32;33546;-85
2023/04/12 07:19:42;;;;;;;5.57;4.10;;;;;;;14.75;54.42;99699.41;5553722;32;34037;-86
2023/04/12 07:22:45;;;;;;;7.60;4.57;;;;;;;15.05;53.71;99711.28;5554434;32;34121;-90
2023/04/12 07:25:48;;;;;;;6.55;5.35;;;;;;;14.02;55.35;99699.53;5552452;32;34271;-90
2023/04/12 07:28:56;;;;;;;5.70;5.05;;;;;;;15.27;52.75;99700.69;5555663;32;33910;-87
2023/04/12 07:32:00;;;;;;;8.13;6.00;;;;;;;15.57;51.48;99700.06;5556636;32;33708;-87
2023/04/12 07:38:48;;;;;;;6.45;4.95;;;;;;;15.39;51.76;99702.38;1322933;26;20361;-87
2023/04/12 07:41:51;;;;;;;5.90;4.28;;;;;;;15.21;52.78;99694.03;5554850;26;33900;-87
2023/04/12 07:44:53;;;;;;;4.53;3.95;;;;;;;16.54;48.71;99702.78;5538717;32;34465;-87
2023/04/12 07:47:56;;;;;;;5.32;4.20;;;;;;;16.14;49.16;99686.50;5534618;32;33626;-85
2023/04/12 07:50:59;;;;;;;8.02;4.32;;;;;;;17.06;46.05;99692.09;5539752;32;33956;-85
2023/04/12 07:54:03;;;;;;;5.80;4.62;;;;;;;16.24;47.61;99693.75;5543291;32;35011;-85
2023/04/12 07:57:07;;;;;;;6.97;4.60;;;;;;;15.96;47.74;99693.38;5536712;32;33934;-85
2023/04/12 08:00:11;;;;;;;9.98;5.10;;;;;;;14.42;52.11;99695.66;5539151;32;34028;-86
2023/04/12 08:03:17;;;;;;;6.43;5.15;;;;;;;14.61;53.42;99695.09;5538336;32;34462;-86
2023/04/12 08:06:20;;;;;;;6.75;5.22;;;;;;;15.70;50.34;99699.03;5537837;32;34173;-86
2023/04/12 08:09:23;;;;;;;6.05;5.18;;;;;;;15.54;51.90;99694.09;5542734;32;34098;-86
2023/04/12 08:12:26;;;;;;;5.10;4.53;;;;;;;15.51;50.90;99695.22;5541102;32;34186;-88
2023/04/12 08:15:29;;;;;;;5.78;4.70;;;;;;;14.30;52.46;99697.47;5538189;32;34316;-87
2023/04/12 08:18:32;;;;;;;6.05;4.12;;;;;;;14.22;53.41;99699.84;5534846;32;34218;-87
2023/04/12 08:21:35;;;;;;;5.62;4.32;;;;;;;15.53;50.94;99701.25;5539858;32;33195;-85
2023/04/12 08:24:37;;;;;;;4.03;3.62;;;;;;;15.73;53.00;99698.78;5526506;32;34194;-85
2023/04/12 08:27:42;;;;;;;5.70;4.30;;;;;;;16.12;52.13;99685.78;5537569;32;34475;-85
2023/04/12 08:30:49;;;;;;;4.95;4.10;;;;;;;16.92;46.94;99687.06;5538912;32;34428;-85
2023/04/12 08:33:52;;;;;;;6.55;3.92;;;;;;;16.85;46.82;99689.47;5523982;32;34409;-85
2023/04/12 08:36:58;;;;;;;7.00;3.78;;;;;;;17.02;46.13;99695.16;5517369;32;34222;-84
2023/04/12 08:40:04;;;;;;;3.67;3.35;;;;;;;17.03;46.58;99696.87;5517598;32;35006;-84
2023/04/12 08:43:10;;;;;;;3.95;3.53;;;;;;;16.28;46.63;99692.50;5517758;32;36134;-84
2023/04/12 08:46:14;;;;;;;5.12;3.30;;;;;;;17.35;43.51;99694.00;5516206;32;34135;-85
2023/04/12 08:49:19;;;;;;;3.65;3.33;;;;;;;18.43;41.89;99695.06;5517343;32;33634;-85
2023/04/12 08:52:22;;;;;;;5.18;2.90;;;;;;;18.91;39.89;99687.03;5516434;32;33824;-85
2023/04/12 08:55:25;;;;;;;5.82;3.10;;;;;;;19.04;41.36;99684.00;5517523;32;33785;-88
2023/04/12 08:58:30;;;;;;;6.80;3.42;;;;;;;18.91;40.60;99698.59;5517903;32;33532;-89
2023/04/12 09:01:32;;;;;;;5.80;2.97;;;;;;;19.21;41.05;99691.28;5519806;32;33762;-89
2023/04/12 09:04:49;;;;;;;5.72;3.17;;;;;;;18.74;42.84;99692.16;5520677;32;33482;-88
2023/04/12 09:07:52;;;;;;;7.00;3.12;;;;;;;19.57;39.34;99686.97;5518676;32;33843;-86
2023/04/12 09:10:55;;;;;;;7.95;3.10;;;;;;;19.37;37.73;99685.25;5516000;32;34029;-86
2023/04/12 09:13:58;;;;;;;3.78;3.08;;;;;;;19.51;39.50;99681.22;5515642;32;34375;-86
2023/04/12 09:17:01;;;;;;;3.92;2.78;;;;;;;19.97;38.48;99679.50;5515846;32;34138;-85
2023/04/12 09:20:16;;;;;;;13.55;3.40;;;;;;;20.68;36.13;99676.81;5524057;32;33990;-86
2023/04/12 09:23:25;;;;;;;4.28;2.95;;;;;;;20.43;38.54;99672.09;5521085;32;34995;-86
2023/04/12 09:26:30;;;;;;;4.28;3.05;;;;;;;20.32;36.42;99670.50;5516050;32;33935;-86
2023/04/12 09:29:33;;;;;;;4.37;3.20;;;;;;;20.54;34.93;99664.75;5518479;32;34740;-87
2023/04/12 09:32:36;;;;;;;5.55;3.40;;;;;;;19.43;37.66;99658.75;5521957;32;34188;-87
2023/04/12 09:35:41;;;;;;;6.25;3.35;;;;;;;20.11;35.73;99659.25;5519559;32;34251;-87
2023/04/12 09:38:59;;;;;;;6.53;3.30;;;;;;;19.83;36.07;99651.25;5514348;32;33929;-87
2023/04/12 09:42:14;;;;;;;5.43;3.17;;;;;;;19.72;38.15;99642.41;5514120;32;34360;-87
2023/04/12 09:45:37;;;;;;;4.22;3.30;;;;;;;20.84;34.21;99641.00;5512362;32;33709;-87
2023/04/12 09:48:47;;;;;;;3.70;3.15;;;;;;;18.67;37.32;99646.25;5523786;32;33951;-87
2023/04/12 09:51:51;;;;;;;4.67;3.43;;;;;;;17.60;39.44;99648.91;5526828;32;34209;-87
2023/04/12 09:54:56;;;;;;;4.15;3.40;;;;;;;18.79;38.09;99641.53;5519365;32;34104;-88
2023/04/12 09:58:02;;;;;;;5.37;3.05;;;;;;;19.25;37.42;99636.22;5517282;32;34117;-87
2023/04/12 10:01:08;;;;;;;5.30;3.30;;;;;;;19.44;38.58;99625.47;5517393;32;34048;-88
2023/04/12 10:04:11;;;;;;;3.45;3.15;;;;;;;20.16;36.66;99628.16;5513650;32;34073;-87
2023/04/12 10:07:15;;;;;;;4.15;3.75;;;;;;;20.50;36.15;99633.75;5514828;32;33557;-89
2023/04/12 10:10:19;;;;;;;9.38;3.37;;;;;;;20.04;34.85;99627.59;5517044;32;34209;-89
2023/04/12 10:13:22;;;;;;;5.18;3.37;;;;;;;22.72;31.37;99625.31;5515815;32;33996;-87
2023/04/12 10:16:26;;;;;;;5.90;3.35;;;;;;;24.43;28.63;99624.53;5510853;32;33916;-87
2023/04/12 10:19:32;;;;;;;5.87;3.40;;;;;;;22.55;30.86;99622.69;5513594;32;34091;-87
2023/04/12 10:22:41;;;;;;;5.25;3.90;;;;;;;21.85;31.18;99632.19;5515437;32;35282;-87
2023/04/12 10:25:47;;;;;;;6.12;3.40;;;;;;;18.36;36.42;99618.78;5514254;32;34545;-87
2023/04/12 10:29:27;;;;;;;4.10;3.70;;;;;;;19.60;37.18;99617.59;5515085;32;34767;-88
2023/04/12 10:32:30;;;;;;;5.12;3.40;;;;;;;20.35;33.57;99617.34;5523776;32;34119;-87
2023/04/12 10:35:53;;;;;;;3.97;3.60;;;;;;;19.97;33.56;99617.59;5517389;32;35301;-88
2023/04/12 10:39:09;;;;;;;4.85;3.58;;;;;;;18.25;36.04;99617.12;5511659;32;33784;-88
2023/04/12 10:42:22;;;;;;;11.68;3.40;;;;;;;20.00;34.04;99617.25;5512283;32;33907;-87
2023/04/12 10:45:30;;;;;;;5.87;3.17;;;;;;;21.36;32.17;99607.66;5516648;32;34699;-87
2023/04/12 10:48:38;;;;;;;4.65;3.45;;;;;;;21.65;30.02;99617.16;5515856;32;33895;-86
2023/04/12 10:52:05;;;;;;;3.58;3.28;;;;;;;23.05;28.23;99608.12;5513644;32;33766;-88
2023/04/12 10:55:26;;;;;;;3.90;3.50;;;;;;;25.16;24.37;99604.03;5538844;26;34719;31
2023/04/12 11:02:10;;;;;;;6.90;3.22;;;;;;;20.76;29.75;99601.38;2354597;26;20073;-86
2023/04/12 11:05:21;;;;;;;3.45;3.12;;;;;;;19.59;31.55;99597.06;5652254;26;34185;-87
2023/04/12 11:08:27;;;;;;;3.97;3.67;;;;;;;19.35;32.69;99594.97;5614134;26;35175;-88
2023/04/12 11:11:35;;;;;;;;;;;;;;;17.40;35.42;99598.94;5553320;32;33853;-88
2023/04/12 11:14:48;;;;;;;3.97;3.62;;;;;;;17.58;35.83;99593.72;5625540;26;34367;-88
2023/04/12 11:18:05;;;;;;;3.90;3.20;;;;;;;17.51;35.78;99599.63;5590079;31;33880;-87
2023/04/12 11:21:09;;;;;;;4.70;3.72;;;;;;;18.76;34.37;99574.66;5587657;31;34888;-88
2023/04/12 11:24:13;;;;;;;5.20;3.10;;;;;;;19.24;32.85;99593.34;5592311;31;34207;-87
2023/04/12 11:27:17;;;;;;;3.83;2.72;;;;;;;18.63;33.59;99584.91;5603260;31;33804;-87
2023/04/12 11:30:22;;;;;;;4.65;3.00;;;;;;;18.66;32.24;99582.75;5602217;31;35127;-87
2023/04/12 11:33:37;;;;;;;5.40;3.25;;;;;;;18.46;32.97;99579.34;5599694;31;33975;-87
2023/04/12 11:36:40;;;;;;;4.37;3.20;;;;;;;17.52;34.32;99576.38;5591291;31;33591;-87
2023/04/12 11:39:44;;;;;;;3.40;3.10;;;;;;;16.50;36.54;99576.41;5588621;31;34777;-86
2023/04/12 11:42:47;;;;;;;3.97;3.28;;;;;;;16.82;36.21;99567.37;5589137;31;34715;-89
2023/04/12 11:45:59;;;;;;;3.97;2.78;;;;;;;15.52;37.20;99565.94;5589898;31;35025;-91
2023/04/12 11:49:01;;;;;;;5.78;3.30;;;;;;;15.94;37.88;99556.28;5589471;31;33880;-88
2023/04/12 11:52:04;;;;;;;2.92;2.62;;;;;;;17.00;36.15;99558.63;5591140;31;34288;-87
2023/04/12 11:55:09;;;;;;;4.93;2.62;;;;;;;17.14;35.02;99562.78;5584402;31;34312;-87
2023/04/12 11:58:17;;;;;;;3.75;2.53;;;;;;;17.04;33.87;99556.59;5568226;32;34693;-87
2023/04/12 12:01:22;;;;;;;3.95;2.90;;;;;;;17.09;33.56;99560.53;5567751;32;33879;-87
2023/04/12 12:04:26;;;;;;;5.32;2.58;;;;;;;16.69;36.20;99548.00;5572680;32;33878;-87
2023/04/12 12:07:29;;;;;;;7.22;2.45;;;;;;;16.59;35.14;99544.47;5567602;32;33993;-87
2023/04/12 12:10:35;;;;;;;3.95;2.70;;;;;;;16.57;34.19;99542.78;5567886;32;34727;-85
2023/04/12 12:13:58;;;;;;;4.68;3.03;;;;;;;15.98;36.00;99533.59;5568803;32;33813;-88
2023/04/12 12:17:12;;;;;;;5.28;2.60;;;;;;;16.81;35.74;99522.78;5568447;32;33486;-88
2023/04/12 12:20:19;;;;;;;5.00;2.90;;;;;;;16.26;36.46;99520.53;5569088;32;34011;-88
2023/04/12 12:23:32;;;;;;;4.18;2.92;;;;;;;15.29;36.88;99519.75;5569067;32;33914;-88
2023/04/12 12:26:35;;;;;;;4.10;2.37;;;;;;;16.20;35.59;99521.06;5568408;32;34359;-87
2023/04/12 12:29:39;;;;;;;6.37;2.97;;;;;;;15.69;36.35;99519.06;5571667;32;33734;-87
2023/04/12 12:32:42;;;;;;;3.25;2.50;;;;;;;15.89;36.30;99516.50;5572546;32;33638;-87
2023/04/12 12:35:45;;;;;;;4.87;2.85;;;;;;;15.86;36.96;99503.41;5572563;32;33300;-85
2023/04/12 12:38:52;;;;;;;4.05;2.60;;;;;;;16.01;37.32;99509.28;5571095;32;33887;-87
2023/04/12 12:41:55;;;;;;;5.75;3.22;;;;;;;16.10;37.09;99507.66;5570442;32;33789;-87
2023/04/12 12:44:58;;;;;;;5.25;2.60;;;;;;;15.70;37.18;99501.19;5570583;32;33898;-84
2023/04/12 12:48:02;;;;;;;4.82;2.50;;;;;;;15.99;36.42;99508.59;5569970;32;34556;-84
2023/04/12 12:51:06;;;;;;;6.45;2.67;;;;;;;15.96;35.65;99506.16;5572225;32;33935;-87
2023/04/12 12:54:09;;;;;;;7.32;3.05;;;;;;;15.81;35.76;99508.28;5576094;32;34099;-87
2023/04/12 12:57:12;;;;;;;4.53;2.92;;;;;;;15.82;35.64;99499.28;5575706;32;34180;-87
2023/04/12 13:00:16;;;;;;;3.70;2.80;;;;;;;15.80;35.81;99503.94;5573564;32;33680;-87
2023/04/12 13:03:19;;;;;;;5.82;2.72;;;;;;;15.57;37.46;99496.91;5579018;32;34719;-84
2023/04/12 13:06:24;;;;;;;5.25;2.60;;;;;;;15.27;37.05;99506.53;5576078;32;35411;-89
2023/04/12 13:09:27;;;;;;;4.65;2.95;;;;;;;15.07;37.35;99501.03;5575007;32;34492;-88
2023/04/12 13:12:44;;;;;;;4.50;2.97;;;;;;;15.53;35.51;99497.31;5575048;32;33882;-88
2023/04/12 13:15:50;;;;;;;3.80;2.70;;;;;;;14.98;37.06;99492.91;5576349;32;33911;-88
2023/04/12 13:18:53;;;;;;;3.42;2.47;;;;;;;14.91;37.17;99485.41;5579199;32;35147;-87
2023/04/12 13:21:56;;;;;;;2.95;2.37;;;;;;;15.18;36.54;99485.91;5578704;32;33742;-87
2023/04/12 13:25:00;;;;;;;4.12;2.75;;;;;;;15.34;36.05;99475.63;5578690;32;34975;-87
2023/04/12 13:28:03;;;;;;;3.83;2.95;;;;;;;15.52;36.48;99472.38;5574440;32;34780;-87
2023/04/12 13:31:06;;;;;;;8.52;2.47;;;;;;;15.56;36.80;99475.63;5573135;32;33707;-87
2023/04/12 13:34:09;;;;;;;4.50;3.10;;;;;;;15.46;36.91;99472.91;5576110;32;34050;-88
2023/04/12 13:37:13;;;;;;;4.07;2.60;;;;;;;14.84;36.75;99478.03;5597566;31;34049;-88
2023/04/12 13:40:19;;;;;;;7.65;2.58;;;;;;;15.01;35.58;99469.47;5595067;31;34830;-88
2023/04/12 13:43:22;;;;;;;3.83;2.30;;;;;;;15.32;36.16;99466.06;5592886;31;33914;-87
2023/04/12 13:46:24;;;;;;;3.20;2.20;;;;;;;15.39;35.16;99463.72;5591506;31;33455;-88
2023/04/12 13:49:27;;;;;;;4.55;2.37;;;;;;;15.71;34.22;99468.13;5593395;31;34251;-87
2023/04/12 13:52:30;;;;;;;2.28;1.95;;;;;;;15.93;33.61;99464.47;5591565;31;34538;-88
2023/04/12 13:55:33;;;;;;;3.42;2.28;;;;;;;14.87;34.62;99465.28;5592353;31;34231;-88
2023/04/12 13:58:38;;;;;;;5.35;2.28;;;;;;;14.85;35.02;99461.03;5592272;31;33910;-88
2023/04/12 14:01:41;;;;;;;3.33;2.28;;;;;;;15.34;33.77;99458.78;5581110;31;34204;-87
2023/04/12 14:04:52;;;;;;;5.15;2.05;;;;;;;15.35;33.71;99455.13;5569240;32;34783;-86
2023/04/12 14:07:55;;;;;;;5.47;2.17;;;;;;;15.73;33.75;99463.50;5577282;31;34466;-87
2023/04/12 14:10:59;;;;;;;2.62;1.85;;;;;;;15.29;34.67;99453.78;5590490;31;33923;-88
2023/04/12 14:14:02;;;;;;;2.47;2.00;;;;;;;15.62;33.79;99454.59;5591397;31;34009;-87
2023/04/12 14:17:11;;;;;;;2.50;2.05;;;;;;;15.65;32.82;99458.81;5596424;31;33840;-88
2023/04/12 14:20:14;;;;;;;4.03;2.22;;;;;;;15.52;33.33;99451.00;5597014;31;34634;-88
2023/04/12 14:23:23;;;;;;;3.83;1.92;;;;;;;15.61;32.49;99446.69;5595888;31;34223;-86
2023/04/12 14:26:26;;;;;;;4.00;1.75;;;;;;;15.75;32.15;99443.66;5588771;31;33744;-84
2023/04/12 14:29:30;;;;;;;5.30;1.90;;;;;;;15.65;31.98;99440.12;5589193;31;34251;-87
2023/04/12 14:32:33;;;;;;;2.17;1.90;;;;;;;15.97;31.83;99438.31;5588991;31;34228;-88
2023/04/12 14:35:36;;;;;;;2.85;1.95;;;;;;;15.75;31.16;99445.50;5588323;31;33933;-85
2023/04/12 14:38:40;;;;;;;3.10;1.70;;;;;;;15.67;31.91;99451.50;5589967;31;35241;-85
2023/04/12 14:41:44;;;;;;;1.73;1.62;;;;;;;15.76;31.19;99445.34;5589501;31;33977;-85
2023/04/12 14:44:47;;;;;;;2.58;2.08;;;;;;;15.08;31.24;99453.78;5589933;31;33975;-86
2023/04/12 14:47:49;;;;;;;2.40;1.75;;;;;;;14.86;31.55;99449.38;5588210;31;35164;-87
2023/04/12 14:50:54;;;;;;;2.45;1.77;;;;;;;15.13;31.19;99440.88;5588945;31;34400;-87
2023/04/12 14:53:57;;;;;;;2.90;2.00;;;;;;;15.11;32.12;99440.19;5588659;31;33581;-87
2023/04/12 14:57:03;;;;;;;1.98;1.65;;;;;;;15.03;30.88;99439.97;5588878;31;33581;-87
2023/04/12 15:00:13;;;;;;;2.95;1.65;;;;;;;15.05;29.87;99441.53;5588809;31;34266;-91
2023/04/12 15:03:15;;;;;;;2.15;1.90;;;;;;;14.62;29.79;99437.91;5589170;31;33411;-87
2023/04/12 15:06:21;;;;;;;2.17;1.98;;;;;;;15.00;30.76;99434.88;5589661;31;33506;-87
2023/04/12 15:09:25;;;;;;;3.12;1.85;;;;;;;15.02;30.48;99440.94;5590614;31;34004;-87
2023/04/12 15:12:28;;;;;;;2.00;1.90;;;;;;;14.90;31.26;99442.81;5589458;31;33885;-87
2023/04/12 15:15:30;;;;;;;4.00;1.80;;;;;;;15.06;30.83;99443.25;5589975;31;34127;-87
2023/04/12 15:18:38;;;;;;;7.40;2.20;;;;;;;15.03;31.07;99437.31;5586382;31;34679;-87
2023/04/12 15:21:42;;;;;;;4.55;1.90;;;;;;;15.14;30.97;99431.88;5581863;31;33774;-87
2023/04/12 15:24:45;;;;;;;2.50;2.00;;;;;;;14.92;31.46;99432.84;5588801;31;33512;-87
2023/04/12 15:27:47;;;;;;;3.58;2.25;;;;;;;14.87;31.06;99430.56;5589233;31;33873;-87
2023/04/12 15:30:51;;;;;;;3.67;2.30;;;;;;;14.58;31.61;99432.94;5588769;31;33832;-87
2023/04/12 15:33:54;;;;;;;3.28;2.22;;;;;;;14.65;31.53;99432.31;5575165;31;34797;-87
